createdAt,value
2018-12-07T00:02:17.727Z,99.90
2018-12-07T00:04:46.047Z,99.90
2018-12-07T00:07:14.941Z,99.90
2018-12-07T00:09:43.159Z,99.90
2018-12-07T00:12:11.420Z,99.90
2018-12-07T00:14:39.626Z,99.90
2018-12-07T00:17:07.911Z,99.90
2018-12-07T00:19:36.182Z,99.90
2018-12-07T00:22:05.027Z,99.90
2018-12-07T00:24:33.220Z,99.90
2018-12-07T00:27:01.396Z,99.90
2018-12-07T00:29:29.588Z,99.90
2018-12-07T00:31:57.919Z,99.90
2018-12-07T00:34:26.188Z,99.90
2018-12-07T00:36:54.378Z,99.90
2018-12-07T00:39:22.587Z,99.90
2018-12-07T00:41:50.860Z,99.90
2018-12-07T00:44:19.041Z,99.90
2018-12-07T00:46:47.307Z,99.90
2018-12-07T00:49:15.501Z,99.90
2018-12-07T00:51:43.659Z,99.90
2018-12-07T00:54:11.922Z,99.90
2018-12-07T00:56:40.174Z,99.90
2018-12-07T00:59:08.364Z,99.90
2018-12-07T01:01:36.692Z,99.90
2018-12-07T01:04:04.992Z,99.90
2018-12-07T01:06:33.171Z,99.90
2018-12-07T01:09:01.387Z,99.90
2018-12-07T01:11:29.711Z,99.90
2018-12-07T01:13:57.891Z,99.90
2018-12-07T01:16:26.158Z,99.90
2018-12-07T01:18:54.622Z,99.90
2018-12-07T01:21:22.892Z,99.90
2018-12-07T01:23:51.130Z,99.90
2018-12-07T01:26:19.417Z,99.90
2018-12-07T01:28:47.574Z,99.90
2018-12-07T01:31:15.759Z,99.90
2018-12-07T01:33:43.979Z,99.90
2018-12-07T01:36:12.242Z,99.90
2018-12-07T01:38:40.416Z,99.90
2018-12-07T01:41:08.693Z,99.90
2018-12-07T01:43:36.879Z,99.90
2018-12-07T01:46:05.043Z,99.90
2018-12-07T01:48:33.208Z,99.90
2018-12-07T01:51:01.431Z,99.90
2018-12-07T01:53:29.613Z,99.90
2018-12-07T01:55:57.856Z,99.90
2018-12-07T01:58:26.098Z,99.90
2018-12-07T02:00:54.328Z,99.90
2018-12-07T02:03:22.519Z,99.90
2018-12-07T02:05:50.801Z,99.90
2018-12-07T02:08:18.978Z,99.90
2018-12-07T02:10:47.172Z,99.90
2018-12-07T02:13:15.354Z,99.90
2018-12-07T02:15:43.582Z,99.90
2018-12-07T02:18:11.769Z,99.90
2018-12-07T02:20:40.105Z,99.90
2018-12-07T02:23:08.343Z,99.90
2018-12-07T02:25:36.530Z,99.90
2018-12-07T02:28:04.804Z,99.90
2018-12-07T02:30:33.138Z,99.90
2018-12-07T02:33:01.462Z,99.90
2018-12-07T02:35:29.890Z,99.90
2018-12-07T02:37:58.046Z,99.90
2018-12-07T02:40:26.334Z,99.90
2018-12-07T02:42:54.500Z,99.90
2018-12-07T02:45:22.669Z,99.90
2018-12-07T02:47:50.890Z,99.90
2018-12-07T02:50:19.128Z,99.90
2018-12-07T02:52:47.329Z,99.90
2018-12-07T02:55:15.706Z,99.90
2018-12-07T02:57:43.931Z,99.90
2018-12-07T03:00:12.276Z,99.90
2018-12-07T03:02:40.556Z,99.90
2018-12-07T03:05:08.814Z,99.90
2018-12-07T03:07:37.067Z,99.90
2018-12-07T03:10:06.740Z,99.90
2018-12-07T03:12:34.927Z,99.90
2018-12-07T03:15:03.420Z,99.90
2018-12-07T03:17:31.751Z,99.90
2018-12-07T03:19:59.940Z,99.90
2018-12-07T03:22:28.106Z,99.90
2018-12-07T03:24:56.409Z,99.90
2018-12-07T03:27:24.571Z,99.90
2018-12-07T03:29:52.826Z,99.90
2018-12-07T03:32:21.036Z,99.90
2018-12-07T03:34:49.230Z,99.90
2018-12-07T03:37:17.484Z,99.90
2018-12-07T03:39:45.765Z,99.90
2018-12-07T03:42:14.126Z,99.90
2018-12-07T03:44:42.305Z,99.90
2018-12-07T03:47:10.585Z,99.90
2018-12-07T03:49:38.830Z,99.90
2018-12-07T03:52:07.092Z,99.90
2018-12-07T03:54:35.419Z,99.90
2018-12-07T03:57:03.631Z,99.90
2018-12-07T03:59:31.807Z,99.90
2018-12-07T04:02:00.083Z,99.90
2018-12-07T04:04:28.291Z,99.90
2018-12-07T04:06:56.464Z,99.90
2018-12-07T04:09:24.646Z,99.90
2018-12-07T04:11:52.832Z,99.90
2018-12-07T04:14:20.979Z,99.90
2018-12-07T04:16:49.179Z,99.90
2018-12-07T04:19:17.346Z,99.90
2018-12-07T04:21:45.562Z,99.90
2018-12-07T04:24:13.819Z,99.90
2018-12-07T04:26:41.974Z,99.90
2018-12-07T04:29:10.286Z,99.90
2018-12-07T04:31:38.542Z,99.90
2018-12-07T04:34:06.675Z,99.90
2018-12-07T04:36:34.926Z,99.90
2018-12-07T04:39:03.889Z,99.90
2018-12-07T04:41:32.226Z,99.90
2018-12-07T04:44:00.517Z,99.90
2018-12-07T04:46:28.683Z,99.90
2018-12-07T04:48:56.831Z,99.90
2018-12-07T04:51:25.110Z,99.90
2018-12-07T04:53:53.364Z,99.90
2018-12-07T04:56:21.638Z,99.90
2018-12-07T04:58:49.811Z,99.90
2018-12-07T05:01:18.094Z,99.90
2018-12-07T05:03:46.358Z,99.90
2018-12-07T05:06:14.521Z,99.90
2018-12-07T05:08:42.674Z,99.90
2018-12-07T05:11:10.867Z,99.90
2018-12-07T05:13:39.103Z,99.90
2018-12-07T05:16:07.358Z,99.90
2018-12-07T05:18:35.588Z,99.90
2018-12-07T05:21:03.746Z,99.90
2018-12-07T05:23:32.014Z,99.90
2018-12-07T05:26:00.221Z,99.90
2018-12-07T05:28:28.390Z,99.90
2018-12-07T05:30:56.642Z,99.90
2018-12-07T05:33:25.041Z,99.90
2018-12-07T05:35:53.368Z,99.90
2018-12-07T05:38:21.651Z,99.90
2018-12-07T05:40:49.911Z,99.90
2018-12-07T05:43:18.100Z,99.90
2018-12-07T05:45:46.299Z,99.90
2018-12-07T05:48:14.474Z,99.90
2018-12-07T05:50:42.647Z,99.90
2018-12-07T05:53:10.867Z,99.90
2018-12-07T05:55:39.117Z,99.90
2018-12-07T05:58:07.416Z,99.90
2018-12-07T06:00:35.688Z,99.90
2018-12-07T06:03:03.987Z,99.90
2018-12-07T06:05:32.327Z,99.90
2018-12-07T06:08:18.107Z,99.90
2018-12-07T06:10:46.335Z,99.90
2018-12-07T06:13:14.603Z,99.90
2018-12-07T06:15:43.190Z,99.90
2018-12-07T06:18:11.415Z,99.90
2018-12-07T06:20:39.611Z,99.90
2018-12-07T06:23:07.933Z,99.90
2018-12-07T06:25:36.768Z,99.90
2018-12-07T06:28:05.079Z,99.90
2018-12-07T06:30:33.278Z,99.90
2018-12-07T06:33:01.542Z,99.90
2018-12-07T06:35:29.735Z,99.90
2018-12-07T06:37:57.903Z,99.90
2018-12-07T06:40:26.115Z,99.90
2018-12-07T06:42:54.321Z,99.90
2018-12-07T06:45:22.546Z,99.90
2018-12-07T06:47:50.818Z,99.90
2018-12-07T06:50:19.261Z,99.90
2018-12-07T06:52:47.548Z,99.90
2018-12-07T06:55:15.737Z,99.90
2018-12-07T06:57:44.070Z,99.90
2018-12-07T07:00:12.735Z,99.90
2018-12-07T07:02:41.123Z,99.90
2018-12-07T07:05:09.311Z,99.90
2018-12-07T07:07:37.838Z,99.90
2018-12-07T07:10:06.997Z,99.90
2018-12-07T07:12:35.240Z,99.90
2018-12-07T07:15:04.345Z,99.90
2018-12-07T07:17:32.618Z,99.90
2018-12-07T07:20:00.849Z,99.90
2018-12-07T07:22:29.182Z,99.90
2018-12-07T07:24:57.391Z,99.90
2018-12-07T07:27:25.588Z,99.90
2018-12-07T07:29:53.920Z,99.90
2018-12-07T07:32:22.123Z,99.90
2018-12-07T07:34:50.449Z,99.90
2018-12-07T07:37:18.959Z,99.90
2018-12-07T07:39:47.192Z,99.90
2018-12-07T07:42:15.688Z,99.90
2018-12-07T07:44:43.980Z,99.90
2018-12-07T07:47:12.139Z,99.90
2018-12-07T07:49:40.316Z,99.90
2018-12-07T07:52:08.657Z,99.90
2018-12-07T07:54:36.887Z,99.90
2018-12-07T07:57:05.084Z,99.90
2018-12-07T07:59:33.623Z,99.90
2018-12-07T08:02:01.821Z,99.90
2018-12-07T08:04:30.220Z,99.90
2018-12-07T08:06:58.412Z,99.90
2018-12-07T08:09:26.692Z,99.90
2018-12-07T08:11:55.011Z,99.90
2018-12-07T08:14:23.172Z,99.90
2018-12-07T08:16:51.358Z,99.90
2018-12-07T08:19:19.636Z,99.90
2018-12-07T08:21:47.946Z,99.90
2018-12-07T08:24:16.312Z,99.90
2018-12-07T08:26:44.709Z,99.90
2018-12-07T08:29:12.894Z,99.90
2018-12-07T08:31:41.059Z,99.90
2018-12-07T08:34:09.316Z,99.90
2018-12-07T08:36:37.676Z,99.90
2018-12-07T08:39:10.201Z,99.90
2018-12-07T08:41:38.394Z,99.90
2018-12-07T08:44:06.743Z,99.90
2018-12-07T08:46:34.992Z,99.90
2018-12-07T08:49:03.237Z,99.90
2018-12-07T08:51:31.650Z,99.90
2018-12-07T08:54:00.240Z,99.90
2018-12-07T08:56:29.668Z,99.90
2018-12-07T08:58:58.710Z,99.90
2018-12-07T09:01:27.212Z,99.90
2018-12-07T09:03:55.404Z,99.90
2018-12-07T09:06:23.683Z,99.90
2018-12-07T09:08:51.912Z,99.90
2018-12-07T09:11:20.588Z,99.90
2018-12-07T09:13:48.782Z,99.90
2018-12-07T09:16:17.052Z,99.90
2018-12-07T09:18:45.330Z,99.90
2018-12-07T09:21:13.579Z,99.90
2018-12-07T09:23:41.771Z,99.90
2018-12-07T09:26:10.017Z,99.90
2018-12-07T09:28:38.190Z,99.90
2018-12-07T09:31:06.551Z,99.90
2018-12-07T09:33:34.722Z,99.90
2018-12-07T09:36:03.031Z,99.90
2018-12-07T09:38:31.246Z,99.90
2018-12-07T09:40:59.446Z,99.90
2018-12-07T09:43:27.660Z,99.90
2018-12-07T09:45:56.070Z,99.90
2018-12-07T09:48:24.276Z,99.90
2018-12-07T09:50:52.448Z,99.90
2018-12-07T09:53:20.682Z,99.90
2018-12-07T09:55:48.831Z,99.90
2018-12-07T09:58:17.012Z,99.90
2018-12-07T10:00:45.241Z,99.90
2018-12-07T10:03:13.508Z,99.90
2018-12-07T10:05:41.696Z,99.90
2018-12-07T10:08:10.024Z,99.90
2018-12-07T10:10:38.301Z,99.90
2018-12-07T10:13:08.075Z,99.90
2018-12-07T10:15:36.959Z,99.90
2018-12-07T10:18:05.223Z,99.90
2018-12-07T10:20:33.467Z,99.90
2018-12-07T10:23:01.774Z,99.90
2018-12-07T10:25:30.096Z,99.90
2018-12-07T10:27:58.258Z,99.90
2018-12-07T10:30:27.095Z,99.90
2018-12-07T10:32:55.350Z,99.90
2018-12-07T10:35:23.552Z,99.90
2018-12-07T10:37:51.780Z,99.90
2018-12-07T10:40:19.972Z,99.90
2018-12-07T10:42:48.232Z,99.90
2018-12-07T10:45:16.600Z,99.90
2018-12-07T10:47:50.259Z,99.90
2018-12-07T10:50:15.138Z,99.90
2018-12-07T10:52:43.418Z,99.90
2018-12-07T10:55:11.637Z,99.90
2018-12-07T10:57:39.805Z,99.90
2018-12-07T11:00:14.244Z,99.90
2018-12-07T11:02:47.821Z,99.90
2018-12-07T11:05:22.417Z,99.90
2018-12-07T11:07:56.407Z,99.90
2018-12-07T11:10:30.089Z,99.90
2018-12-07T11:14:04.260Z,99.20
2018-12-07T11:16:38.059Z,98.80
2018-12-07T11:19:11.775Z,98.60
2018-12-07T11:21:45.571Z,99.70
2018-12-07T11:24:19.216Z,99.30
2018-12-07T11:26:53.195Z,99.00
2018-12-07T11:29:27.206Z,98.70
2018-12-07T11:32:01.079Z,98.70
2018-12-07T11:34:34.356Z,98.60
2018-12-07T11:37:04.070Z,97.90
2018-12-07T11:39:32.235Z,98.00
2018-12-07T11:42:01.163Z,98.10
2018-12-07T11:44:29.497Z,98.50
2018-12-07T11:46:57.685Z,98.00
2018-12-07T11:49:30.787Z,98.00
2018-12-07T11:51:59.485Z,97.20
2018-12-07T11:54:28.022Z,97.10
2018-12-07T11:56:56.639Z,96.90
2018-12-07T11:59:24.957Z,96.90
2018-12-07T12:01:53.603Z,96.20
2018-12-07T12:04:21.863Z,95.90
2018-12-07T12:06:50.185Z,96.10
2018-12-07T12:09:18.451Z,95.70
2018-12-07T12:11:47.015Z,94.60
2018-12-07T12:14:15.293Z,95.40
2018-12-07T12:16:43.588Z,95.70
2018-12-07T12:19:11.971Z,95.50
2018-12-07T12:21:40.376Z,95.80
2018-12-07T12:24:08.701Z,96.30
2018-12-07T12:26:37.217Z,96.70
2018-12-07T12:29:05.912Z,95.70
2018-12-07T12:31:34.395Z,96.00
2018-12-07T12:34:02.837Z,96.10
2018-12-07T12:36:31.246Z,96.50
2018-12-07T12:38:59.470Z,96.80
2018-12-07T12:41:27.688Z,96.30
2018-12-07T12:43:55.963Z,95.90
2018-12-07T12:46:24.345Z,95.80
2018-12-07T12:48:53.087Z,96.20
2018-12-07T12:51:21.611Z,95.50
2018-12-07T12:53:49.891Z,95.10
2018-12-07T12:56:18.314Z,95.00
2018-12-07T12:58:46.550Z,95.10
2018-12-07T13:01:14.809Z,94.50
2018-12-07T13:03:43.076Z,94.60
2018-12-07T13:06:11.304Z,93.40
2018-12-07T13:08:39.731Z,92.90
2018-12-07T13:11:08.597Z,93.20
2018-12-07T13:13:37.029Z,92.90
2018-12-07T13:16:05.375Z,93.20
2018-12-07T13:18:33.725Z,92.60
2018-12-07T13:21:02.450Z,92.90
2018-12-07T13:23:30.643Z,91.00
2018-12-07T13:25:58.854Z,91.50
2018-12-07T13:28:27.165Z,92.10
2018-12-07T13:30:55.435Z,91.30
2018-12-07T13:33:23.668Z,91.00
2018-12-07T13:35:51.903Z,91.10
2018-12-07T13:38:20.605Z,91.00
2018-12-07T13:40:48.826Z,92.10
2018-12-07T13:43:17.256Z,91.50
2018-12-07T13:45:45.958Z,91.90
2018-12-07T13:48:14.585Z,91.10
2018-12-07T13:50:43.176Z,91.90
2018-12-07T13:53:12.070Z,91.60
2018-12-07T13:55:40.449Z,91.50
2018-12-07T13:58:08.918Z,92.40
2018-12-07T14:00:37.536Z,91.60
2018-12-07T14:03:05.963Z,91.90
2018-12-07T14:05:34.440Z,92.40
2018-12-07T14:08:02.824Z,92.20
2018-12-07T14:10:31.350Z,92.30
2018-12-07T14:12:59.635Z,92.30
2018-12-07T14:15:27.938Z,92.10
2018-12-07T14:17:56.233Z,91.80
2018-12-07T14:20:24.633Z,91.80
2018-12-07T14:22:52.946Z,91.60
2018-12-07T14:25:21.290Z,91.80
2018-12-07T14:27:49.723Z,92.30
2018-12-07T14:30:18.167Z,91.70
2018-12-07T14:32:46.611Z,92.00
2018-12-07T14:35:15.581Z,92.30
2018-12-07T14:37:43.976Z,92.30
2018-12-07T14:40:12.297Z,94.30
2018-12-07T14:42:40.918Z,93.70
2018-12-07T14:45:09.680Z,93.20
2018-12-07T14:47:38.787Z,92.90
2018-12-07T14:50:08.061Z,93.20
2018-12-07T14:52:36.416Z,90.90
2018-12-07T14:55:05.625Z,92.40
2018-12-07T14:57:34.127Z,91.90
2018-12-07T15:00:02.659Z,92.30
2018-12-07T15:02:37.919Z,92.50
2018-12-07T15:05:09.678Z,93.00
2018-12-07T15:07:38.025Z,92.50
2018-12-07T15:10:07.995Z,92.10
2018-12-07T15:12:36.448Z,92.40
2018-12-07T15:15:05.793Z,92.90
2018-12-07T15:17:34.014Z,92.40
2018-12-07T15:20:04.180Z,92.40
2018-12-07T15:22:32.543Z,92.70
2018-12-07T15:25:00.876Z,94.10
2018-12-07T15:27:29.662Z,95.30
2018-12-07T15:29:58.155Z,95.80
2018-12-07T15:32:26.465Z,97.60
2018-12-07T15:34:54.891Z,99.10
2018-12-07T15:37:23.899Z,99.40
2018-12-07T15:39:52.328Z,99.90
2018-12-07T15:42:21.778Z,99.90
2018-12-07T15:44:50.530Z,99.90
2018-12-07T15:47:19.097Z,99.90
2018-12-07T15:49:47.551Z,99.90
2018-12-07T15:52:16.087Z,99.90
2018-12-07T15:54:44.413Z,99.90
2018-12-07T15:57:12.769Z,99.90
2018-12-07T15:59:41.287Z,99.90
2018-12-07T16:02:09.595Z,99.90
2018-12-07T16:04:38.231Z,99.90
2018-12-07T16:07:06.746Z,99.90
2018-12-07T16:09:35.245Z,99.90
2018-12-07T16:12:03.783Z,99.90
2018-12-07T16:14:32.257Z,99.90
2018-12-07T16:17:00.569Z,99.90
2018-12-07T16:19:29.551Z,99.90
2018-12-07T16:21:57.993Z,99.90
2018-12-07T16:24:26.233Z,99.90
2018-12-07T16:26:54.943Z,99.90
2018-12-07T16:29:23.360Z,99.90
2018-12-07T16:31:51.760Z,99.90
2018-12-07T16:34:20.179Z,99.90
2018-12-07T16:36:48.514Z,99.90
2018-12-07T16:39:16.734Z,99.90
2018-12-07T16:41:45.178Z,99.90
2018-12-07T16:44:13.576Z,99.90
2018-12-07T16:46:42.030Z,99.90
2018-12-07T16:49:10.645Z,99.90
2018-12-07T16:51:39.499Z,99.90
2018-12-07T16:54:08.012Z,99.90
2018-12-07T16:56:36.433Z,99.90
2018-12-07T16:59:04.720Z,99.90
2018-12-07T17:01:33.022Z,99.90
2018-12-07T17:04:01.590Z,99.90
2018-12-07T17:06:29.807Z,99.90
2018-12-07T17:08:58.032Z,99.90
2018-12-07T17:11:26.298Z,99.90
2018-12-07T17:13:54.529Z,99.90
2018-12-07T17:16:22.912Z,99.90
2018-12-07T17:18:51.396Z,99.90
2018-12-07T17:21:19.798Z,99.90
2018-12-07T17:23:48.612Z,99.90
2018-12-07T17:26:16.865Z,99.90
2018-12-07T17:28:45.071Z,99.90
2018-12-07T17:31:14.516Z,99.90
2018-12-07T17:33:42.959Z,99.90
2018-12-07T17:36:11.492Z,99.90
2018-12-07T17:38:39.699Z,99.90
2018-12-07T17:41:07.941Z,99.90
2018-12-07T17:43:36.257Z,99.90
2018-12-07T17:46:04.652Z,99.90
2018-12-07T17:48:33.130Z,99.90
2018-12-07T17:51:01.475Z,99.90
2018-12-07T17:53:29.966Z,99.90
2018-12-07T17:55:58.282Z,99.90
2018-12-07T17:58:26.601Z,99.90
2018-12-07T18:00:55.006Z,99.90
2018-12-07T18:03:23.283Z,99.90
2018-12-07T18:05:51.687Z,99.90
2018-12-07T18:08:20.213Z,99.90
2018-12-07T18:10:48.502Z,99.90
2018-12-07T18:13:16.838Z,99.90
2018-12-07T18:15:45.138Z,99.90
2018-12-07T18:18:13.603Z,99.90
2018-12-07T18:20:41.982Z,99.90
2018-12-07T18:23:10.413Z,99.90
2018-12-07T18:25:38.946Z,99.90
2018-12-07T18:28:07.310Z,99.90
2018-12-07T18:30:35.782Z,99.90
2018-12-07T18:33:04.466Z,99.90
2018-12-07T18:35:33.238Z,99.90
2018-12-07T18:38:01.685Z,99.90
2018-12-07T18:40:29.900Z,99.90
2018-12-07T18:42:58.353Z,99.90
2018-12-07T18:45:26.750Z,99.90
2018-12-07T18:47:55.220Z,99.90
2018-12-07T18:50:23.772Z,99.90
2018-12-07T18:52:52.150Z,99.90
2018-12-07T18:55:20.559Z,99.90
2018-12-07T18:57:49.014Z,99.90
2018-12-07T19:00:17.306Z,99.90
2018-12-07T19:02:45.792Z,99.90
2018-12-07T19:05:14.184Z,99.90
2018-12-07T19:07:42.602Z,99.90
2018-12-07T19:10:11.683Z,99.90
2018-12-07T19:12:40.053Z,99.90
2018-12-07T19:15:09.119Z,99.90
2018-12-07T19:17:37.610Z,99.90
2018-12-07T19:20:07.404Z,99.90
2018-12-07T19:22:35.647Z,99.90
2018-12-07T19:25:04.517Z,99.90
2018-12-07T19:27:32.979Z,99.90
2018-12-07T19:30:02.263Z,99.90
2018-12-07T19:32:30.996Z,99.90
2018-12-07T19:34:59.321Z,99.90
2018-12-07T19:37:27.599Z,99.90
2018-12-07T19:39:56.118Z,99.90
2018-12-07T19:42:24.644Z,99.90
2018-12-07T19:44:52.862Z,99.90
2018-12-07T19:47:21.300Z,99.90
2018-12-07T19:49:49.763Z,99.90
2018-12-07T19:52:18.923Z,99.90
2018-12-07T19:54:47.465Z,99.90
2018-12-07T19:57:17.220Z,99.90
2018-12-07T19:59:45.662Z,99.90
2018-12-07T20:02:14.336Z,99.90
2018-12-07T20:04:42.876Z,99.90
2018-12-07T20:07:13.236Z,99.90
2018-12-07T20:09:41.856Z,99.90
2018-12-07T20:12:10.228Z,99.90
2018-12-07T20:14:38.540Z,99.90
2018-12-07T20:17:06.938Z,99.90
2018-12-07T20:19:35.189Z,99.90
2018-12-07T20:22:03.840Z,99.90
2018-12-07T20:24:32.438Z,99.90
2018-12-07T20:27:00.827Z,99.90
2018-12-07T20:29:29.654Z,99.90
2018-12-07T20:31:58.151Z,99.90
2018-12-07T20:34:26.420Z,99.90
2018-12-07T20:36:54.654Z,99.90
2018-12-07T20:39:22.911Z,99.90
2018-12-07T20:41:51.102Z,99.90
2018-12-07T20:44:19.341Z,99.90
2018-12-07T20:46:47.647Z,99.90
2018-12-07T20:49:16.064Z,99.90
2018-12-07T20:51:44.514Z,99.90
2018-12-07T20:54:12.891Z,99.90
2018-12-07T20:56:41.439Z,99.90
2018-12-07T20:59:09.679Z,99.90
2018-12-07T21:01:38.307Z,99.90
2018-12-07T21:04:22.874Z,99.90
2018-12-07T21:07:40.548Z,99.90
2018-12-07T21:10:30.535Z,99.90
2018-12-07T21:13:28.777Z,99.90
2018-12-07T21:16:02.221Z,99.90
2018-12-07T21:18:31.244Z,99.90
2018-12-07T21:20:59.872Z,99.90
2018-12-07T21:23:28.266Z,99.90
2018-12-07T21:25:56.719Z,99.90
2018-12-07T21:28:25.132Z,99.90
2018-12-07T21:31:02.382Z,99.90
2018-12-07T21:33:43.170Z,99.90
2018-12-07T21:36:34.742Z,99.90
2018-12-07T21:39:05.408Z,99.90
2018-12-07T21:41:33.666Z,99.90
2018-12-07T21:44:01.884Z,99.90
2018-12-07T21:46:30.182Z,99.90
2018-12-07T21:48:58.625Z,99.90
2018-12-07T21:52:04.979Z,99.90
2018-12-07T21:54:33.503Z,99.90
2018-12-07T21:57:01.935Z,99.90
2018-12-07T21:59:30.466Z,99.90
2018-12-07T22:01:58.639Z,99.90
2018-12-07T22:04:26.933Z,99.90
2018-12-07T22:06:55.539Z,99.90
2018-12-07T22:09:24.164Z,99.90
2018-12-07T22:11:52.653Z,99.90
2018-12-07T22:14:21.226Z,99.90
2018-12-07T22:16:49.612Z,99.90
2018-12-07T22:19:17.875Z,99.90
2018-12-07T22:21:46.268Z,99.90
2018-12-07T22:24:14.474Z,99.90
2018-12-07T22:26:42.644Z,99.90
2018-12-07T22:29:10.838Z,99.90
2018-12-07T22:31:39.415Z,99.90
2018-12-07T22:34:07.745Z,99.90
2018-12-07T22:36:36.121Z,99.90
2018-12-07T22:39:07.870Z,99.90
2018-12-07T22:41:36.474Z,99.90
2018-12-07T22:44:05.054Z,99.90
2018-12-07T22:46:33.611Z,99.90
2018-12-07T22:49:02.221Z,99.90
2018-12-07T22:51:30.801Z,99.80
2018-12-07T22:53:59.169Z,99.30
2018-12-07T22:56:27.441Z,98.40
2018-12-07T22:58:55.658Z,99.40
2018-12-07T23:01:23.963Z,99.60
2018-12-07T23:03:52.263Z,98.10
2018-12-07T23:06:20.444Z,97.40
2018-12-07T23:08:48.596Z,97.30
2018-12-07T23:11:16.886Z,96.30
2018-12-07T23:13:45.040Z,96.90
2018-12-07T23:16:13.220Z,97.10
2018-12-07T23:18:41.763Z,96.60
2018-12-07T23:21:10.026Z,96.50
2018-12-07T23:23:38.279Z,96.80
2018-12-07T23:26:06.566Z,96.80
2018-12-07T23:28:34.795Z,96.90
2018-12-07T23:31:03.051Z,96.50
2018-12-07T23:33:31.223Z,96.80
2018-12-07T23:35:59.421Z,98.10
2018-12-07T23:38:27.818Z,97.50
2018-12-07T23:40:55.974Z,97.70
2018-12-07T23:43:24.473Z,97.90
2018-12-07T23:45:52.631Z,97.30
2018-12-07T23:48:20.797Z,97.40
2018-12-07T23:50:49.016Z,97.70
2018-12-07T23:53:17.272Z,97.50
2018-12-07T23:55:45.575Z,96.50
2018-12-07T23:58:13.856Z,96.20
